createdAt,value
2024-03-29T00:08:53.861Z,5.05
2024-03-29T00:23:53.707Z,5.07
2024-03-29T00:38:53.536Z,4.59
2024-03-29T00:53:53.389Z,4.22
2024-03-29T01:08:53.239Z,4.17
2024-03-29T01:23:53.252Z,4.04
2024-03-29T01:38:53.050Z,3.81
2024-03-29T01:53:52.758Z,3.52
2024-03-29T02:08:52.626Z,3.60
2024-03-29T02:23:52.449Z,3.46
2024-03-29T02:38:52.274Z,3.27
2024-03-29T02:53:52.401Z,3.30
2024-03-29T03:08:51.975Z,3.17
2024-03-29T03:23:51.819Z,3.12
2024-03-29T03:38:51.645Z,3.37
2024-03-29T03:53:51.506Z,3.45
2024-03-29T04:08:51.360Z,3.18
2024-03-29T04:23:51.404Z,3.52
2024-03-29T04:38:51.031Z,3.46
2024-03-29T04:53:50.882Z,3.44
2024-03-29T05:08:50.725Z,3.48
2024-03-29T05:23:50.553Z,3.50
2024-03-29T05:38:50.541Z,3.98
2024-03-29T05:53:50.233Z,4.61
2024-03-29T06:08:50.062Z,5.32
2024-03-29T06:23:49.933Z,6.26
2024-03-29T06:38:49.734Z,6.84
2024-03-29T06:53:49.592Z,7.32
2024-03-29T07:08:49.627Z,8.53
2024-03-29T07:23:49.282Z,9.83
2024-03-29T07:38:49.108Z,11.37
2024-03-29T07:53:48.964Z,12.25
2024-03-29T08:08:48.763Z,12.64
2024-03-29T08:23:48.635Z,16.66
2024-03-29T08:38:48.658Z,17.31
2024-03-29T08:53:48.296Z,15.36
2024-03-29T09:08:48.159Z,14.99
2024-03-29T09:23:47.990Z,16.13
2024-03-29T09:38:47.790Z,16.44
2024-03-29T09:53:47.658Z,17.44
2024-03-29T10:08:47.685Z,16.57
2024-03-29T10:23:49.684Z,16.14
2024-03-29T10:38:47.302Z,16.79
2024-03-29T10:53:49.247Z,17.02
2024-03-29T11:08:46.954Z,17.42
2024-03-29T11:23:47.003Z,17.66
2024-03-29T11:38:46.643Z,17.67
2024-03-29T11:53:46.925Z,17.81
2024-03-29T12:08:46.356Z,18.87
2024-03-29T12:23:46.174Z,18.02
2024-03-29T12:38:45.988Z,17.93
2024-03-29T12:53:46.051Z,18.38
2024-03-29T13:08:45.673Z,20.18
2024-03-29T13:23:45.542Z,23.10
2024-03-29T13:38:55.404Z,21.92
2024-03-29T13:53:46.225Z,22.08
2024-03-29T14:08:45.228Z,21.00
2024-03-29T14:23:44.922Z,20.87
2024-03-29T14:38:44.704Z,21.18
2024-03-29T14:53:44.566Z,21.65
2024-03-29T15:08:44.374Z,21.46
2024-03-29T15:23:44.539Z,21.28
2024-03-29T15:38:44.055Z,21.00
2024-03-29T15:53:45.088Z,20.80
2024-03-29T16:08:43.734Z,20.93
2024-03-29T16:23:43.792Z,20.76
2024-03-29T16:38:43.434Z,20.07
2024-03-29T16:53:45.295Z,19.59
2024-03-29T17:08:43.091Z,19.16
2024-03-29T17:23:42.941Z,18.67
2024-03-29T17:38:42.778Z,18.05
2024-03-29T17:53:42.811Z,17.52
2024-03-29T18:08:42.447Z,17.21
2024-03-29T18:23:42.328Z,16.95
2024-03-29T18:38:42.118Z,17.33
2024-03-29T18:53:42.025Z,17.08
2024-03-29T19:08:41.806Z,16.92
2024-03-29T19:23:41.854Z,16.90
2024-03-29T19:38:41.492Z,17.06
2024-03-29T19:53:41.367Z,16.96
2024-03-29T20:08:41.164Z,16.68
2024-03-29T20:23:40.996Z,16.57
2024-03-29T20:38:40.863Z,16.44
2024-03-29T20:53:40.854Z,16.18
2024-03-29T21:08:40.536Z,16.44
2024-03-29T21:23:40.392Z,16.41
2024-03-29T21:38:40.222Z,16.07
2024-03-29T21:53:40.265Z,15.84
2024-03-29T22:08:39.880Z,15.87
2024-03-29T22:23:39.797Z,15.82
2024-03-29T22:38:39.516Z,16.02
2024-03-29T22:53:39.390Z,15.93
2024-03-29T23:08:39.222Z,15.76
2024-03-29T23:23:39.273Z,15.27
2024-03-29T23:38:38.901Z,14.48
2024-03-29T23:53:38.789Z,13.63
